createdAt,value
2023-01-31T12:17:29.447Z,94080.84
2023-01-31T12:20:28.594Z,94079.06
2023-01-31T12:23:11.282Z,94078.81
2023-01-31T12:26:05.791Z,94082.06
2023-01-31T12:29:07.547Z,94078.41
2023-01-31T12:32:02.795Z,94087.47
2023-01-31T12:35:08.073Z,94089.03
2023-01-31T12:37:56.409Z,94085.44
2023-01-31T12:40:41.152Z,94085.88
2023-01-31T12:43:39.635Z,94087.78
2023-01-31T12:46:32.661Z,94087.94
2023-01-31T12:49:31.441Z,94082.59
2023-01-31T12:52:16.131Z,94090.47
2023-01-31T12:55:04.331Z,94082.50
2023-01-31T12:57:44.531Z,94083.47
2023-01-31T13:00:35.290Z,94075.59
2023-01-31T13:03:39.096Z,94070.94
2023-01-31T13:06:15.571Z,94072.91
2023-01-31T13:09:07.229Z,94077.06
2023-01-31T13:11:51.010Z,94080.09
2023-01-31T13:14:23.841Z,94079.94
2023-01-31T13:17:00.179Z,94084.03
2023-01-31T13:19:37.794Z,94082.00
2023-01-31T13:22:15.909Z,94078.53
2023-01-31T13:24:52.947Z,94088.56
2023-01-31T13:27:29.143Z,94098.00
2023-01-31T13:30:02.852Z,94094.47
2023-01-31T13:32:39.584Z,94093.19
2023-01-31T13:35:23.100Z,94091.25
2023-01-31T13:37:57.945Z,94101.13
2023-01-31T13:40:33.968Z,94102.38
2023-01-31T13:43:13.125Z,94106.63
2023-01-31T13:45:48.446Z,94095.00
2023-01-31T13:48:27.923Z,94099.44
2023-01-31T13:51:03.548Z,94103.94
2023-01-31T13:53:37.587Z,94097.06
2023-01-31T13:56:14.454Z,94092.56
2023-01-31T13:58:45.964Z,94100.41
2023-01-31T14:01:21.294Z,94093.41
2023-01-31T14:04:34.947Z,94109.84
2023-01-31T14:07:25.274Z,94102.94
2023-01-31T14:10:43.896Z,94109.16
2023-01-31T14:13:44.367Z,94112.81
2023-01-31T14:16:49.328Z,94113.09
2023-01-31T14:20:09.754Z,94115.03
2023-01-31T14:22:41.526Z,94123.25
2023-01-31T14:25:17.099Z,94113.16
2023-01-31T14:28:02.724Z,94122.53
2023-01-31T14:30:41.187Z,94132.09
2023-01-31T14:33:25.266Z,94132.53
2023-01-31T14:36:36.554Z,94130.56
2023-01-31T14:40:03.994Z,94133.63
2023-01-31T14:43:09.523Z,94137.03
2023-01-31T14:46:37.230Z,94140.22
2023-01-31T14:49:44.757Z,94153.00
2023-01-31T14:52:37.958Z,94152.75
2023-01-31T14:55:39.867Z,94146.63
2023-01-31T14:58:17.634Z,94150.16
2023-01-31T15:00:52.847Z,94161.50
2023-01-31T15:03:26.857Z,94158.75
2023-01-31T15:06:08.857Z,94167.31
2023-01-31T15:08:46.832Z,94170.44
2023-01-31T15:11:42.647Z,94168.50
2023-01-31T15:14:41.026Z,94178.22
2023-01-31T15:17:34.096Z,94182.81
2023-01-31T15:20:17.932Z,94173.72
2023-01-31T15:22:50.150Z,94183.63
2023-01-31T15:25:36.008Z,94178.50
2023-01-31T15:28:06.554Z,94186.84
2023-01-31T15:30:37.468Z,94186.44
2023-01-31T15:33:14.570Z,94184.47
2023-01-31T15:35:51.434Z,94189.44
2023-01-31T15:38:33.453Z,94194.00
2023-01-31T15:41:25.450Z,94190.00
2023-01-31T15:43:56.919Z,94202.75
2023-01-31T15:46:30.696Z,94202.19
2023-01-31T15:49:00.241Z,94215.88
2023-01-31T15:51:29.940Z,94210.31
2023-01-31T15:54:06.891Z,94210.91
2023-01-31T15:56:40.523Z,94219.84
2023-01-31T15:59:16.240Z,94217.50
2023-01-31T16:01:50.267Z,94212.91
2023-01-31T16:04:19.055Z,94215.50
2023-01-31T16:06:48.795Z,94215.69
2023-01-31T16:09:30.079Z,94225.00
2023-01-31T16:12:00.436Z,94229.41
2023-01-31T16:14:30.489Z,94232.19
2023-01-31T16:17:24.824Z,94240.75
2023-01-31T16:19:54.057Z,94238.38
2023-01-31T16:22:28.612Z,94228.78
2023-01-31T16:25:01.503Z,94238.94
2023-01-31T16:27:34.092Z,94237.94
2023-01-31T16:30:03.128Z,94243.34
2023-01-31T16:32:35.670Z,94250.88
2023-01-31T16:35:07.867Z,94245.69
2023-01-31T16:37:39.424Z,94263.00
2023-01-31T16:40:23.343Z,94256.84
2023-01-31T16:43:03.991Z,94268.00
2023-01-31T16:45:35.501Z,94265.59
2023-01-31T16:48:24.299Z,94264.59
2023-01-31T16:50:55.191Z,94267.56
2023-01-31T16:53:40.178Z,94273.56
2023-01-31T16:56:31.828Z,94271.16
2023-01-31T16:59:00.469Z,94275.13
2023-01-31T17:01:32.715Z,94275.94
2023-01-31T17:04:20.480Z,94282.91
2023-01-31T17:07:01.756Z,94294.22
2023-01-31T17:09:30.692Z,94294.63
2023-01-31T17:12:00.761Z,94299.78
2023-01-31T17:14:29.934Z,94297.81
2023-01-31T17:16:59.003Z,94305.38
2023-01-31T17:19:27.842Z,94304.19
2023-01-31T17:21:56.434Z,94309.56
2023-01-31T17:24:24.974Z,94299.59
2023-01-31T17:27:21.459Z,94306.53
2023-01-31T17:29:50.443Z,94304.19
2023-01-31T17:32:22.049Z,94301.97
2023-01-31T17:34:50.530Z,94307.72
2023-01-31T17:37:26.798Z,94307.94
2023-01-31T17:40:00.822Z,94303.97
2023-01-31T17:42:30.863Z,94308.53
2023-01-31T17:44:59.469Z,94308.53
2023-01-31T17:47:28.068Z,94315.06
2023-01-31T17:49:57.453Z,94320.44
2023-01-31T17:52:26.179Z,94316.91
2023-01-31T17:54:54.661Z,94318.66
2023-01-31T17:57:23.275Z,94321.25
2023-01-31T18:00:21.915Z,94324.63
2023-01-31T18:02:52.531Z,94323.63
2023-01-31T18:05:30.199Z,94323.22
2023-01-31T18:08:06.177Z,94324.00
2023-01-31T18:10:34.721Z,94338.31
2023-01-31T18:13:03.414Z,94341.50
2023-01-31T18:15:34.013Z,94345.28
2023-01-31T18:18:02.539Z,94346.03
2023-01-31T18:20:31.239Z,94354.44
2023-01-31T18:22:59.743Z,94361.38
2023-01-31T18:25:29.504Z,94357.78
2023-01-31T18:27:58.441Z,94355.41
2023-01-31T18:30:27.183Z,94353.41
2023-01-31T18:32:57.131Z,94359.75
2023-01-31T18:35:25.677Z,94366.31
2023-01-31T18:37:55.441Z,94368.50
2023-01-31T18:40:24.505Z,94356.56
2023-01-31T18:42:53.001Z,94351.81
2023-01-31T18:45:21.772Z,94361.31
2023-01-31T18:47:51.677Z,94362.34
2023-01-31T18:50:21.576Z,94355.81
2023-01-31T18:53:15.385Z,94361.38
2023-01-31T18:56:05.518Z,94361.78
2023-01-31T18:58:35.334Z,94356.22
2023-01-31T19:01:09.645Z,94361.00
2023-01-31T19:03:39.056Z,94366.75
2023-01-31T19:06:11.805Z,94369.72
2023-01-31T19:08:40.963Z,94365.34
2023-01-31T19:11:12.865Z,94363.16
2023-01-31T19:13:42.531Z,94360.34
2023-01-31T19:16:14.126Z,94364.75
2023-01-31T19:18:43.058Z,94362.75
2023-01-31T19:21:21.927Z,94370.91
2023-01-31T19:23:52.629Z,94385.63
2023-01-31T19:26:21.411Z,94371.13
2023-01-31T19:28:50.819Z,94389.59
2023-01-31T19:31:22.920Z,94388.00
2023-01-31T19:33:53.587Z,94384.81
2023-01-31T19:36:29.348Z,94390.00
2023-01-31T19:39:01.148Z,94380.47
2023-01-31T19:41:30.535Z,94387.41
2023-01-31T19:44:01.490Z,94388.59
2023-01-31T19:46:32.586Z,94382.03
2023-01-31T19:49:33.423Z,94380.19
2023-01-31T19:52:03.234Z,94384.19
2023-01-31T19:54:31.767Z,94396.88
2023-01-31T19:57:00.238Z,94397.47
2023-01-31T19:59:28.669Z,94397.50
2023-01-31T20:01:57.212Z,94401.44
2023-01-31T20:04:25.946Z,94393.88
2023-01-31T20:06:54.440Z,94402.63
2023-01-31T20:09:24.469Z,94400.66
2023-01-31T20:11:54.031Z,94398.44
2023-01-31T20:14:22.813Z,94418.47
2023-01-31T20:16:51.392Z,94424.03
2023-01-31T20:20:11.372Z,94420.66
2023-01-31T20:22:39.845Z,94418.84
2023-01-31T20:25:10.942Z,94426.78
2023-01-31T20:27:39.432Z,94420.03
2023-01-31T20:30:09.875Z,94426.91
2023-01-31T20:32:38.335Z,94432.16
2023-01-31T20:35:07.906Z,94424.75
2023-01-31T20:37:36.354Z,94429.53
2023-01-31T20:40:05.217Z,94430.72
2023-01-31T20:42:35.224Z,94421.56
2023-01-31T20:45:28.118Z,94423.53
2023-01-31T20:47:56.823Z,94426.31
2023-01-31T20:50:26.766Z,94428.72
2023-01-31T20:52:56.063Z,94432.25
2023-01-31T20:55:25.360Z,94431.06
2023-01-31T20:57:55.212Z,94436.63
2023-01-31T21:00:24.420Z,94433.84
2023-01-31T21:02:53.340Z,94442.59
2023-01-31T21:05:24.110Z,94435.63
2023-01-31T21:07:52.642Z,94442.00
2023-01-31T21:10:21.550Z,94436.44
2023-01-31T21:12:50.098Z,94449.38
2023-01-31T21:15:20.000Z,94452.09
2023-01-31T21:17:48.487Z,94456.88
2023-01-31T21:20:17.095Z,94466.22
2023-01-31T21:22:45.572Z,94456.50
2023-01-31T21:25:15.688Z,94459.09
2023-01-31T21:27:44.269Z,94472.34
2023-01-31T21:30:15.594Z,94465.78
2023-01-31T21:32:46.533Z,94466.00
2023-01-31T21:35:15.728Z,94466.00
2023-01-31T21:37:44.192Z,94465.56
2023-01-31T21:40:14.227Z,94465.97
2023-01-31T21:42:43.079Z,94474.25
2023-01-31T21:45:12.654Z,94465.50
2023-01-31T21:47:54.904Z,94471.91
2023-01-31T21:50:24.783Z,94466.75
2023-01-31T21:52:53.272Z,94469.50
2023-01-31T21:55:22.522Z,94465.50
2023-01-31T21:57:50.959Z,94464.72
2023-01-31T22:00:21.165Z,94460.34
2023-01-31T22:02:53.404Z,94463.56
2023-01-31T22:05:21.869Z,94469.28
2023-01-31T22:07:51.670Z,94465.28
2023-01-31T22:10:20.608Z,94470.22
2023-01-31T22:12:49.170Z,94469.63
2023-01-31T22:15:17.719Z,94469.00
2023-01-31T22:17:46.210Z,94480.47
2023-01-31T22:20:15.872Z,94464.19
2023-01-31T22:22:45.279Z,94473.78
2023-01-31T22:25:15.452Z,94474.63
2023-01-31T22:27:43.937Z,94470.69
2023-01-31T22:30:27.821Z,94465.91
2023-01-31T22:32:56.367Z,94465.06
2023-01-31T22:35:26.481Z,94458.94
2023-01-31T22:37:54.938Z,94463.34
2023-01-31T22:40:24.737Z,94467.28
2023-01-31T22:42:53.185Z,94468.50
2023-01-31T22:45:21.670Z,94473.47
2023-01-31T22:47:50.142Z,94477.09
2023-01-31T22:50:19.416Z,94472.72
2023-01-31T22:52:49.601Z,94470.16
2023-01-31T22:55:18.250Z,94472.97
2023-01-31T22:57:48.952Z,94456.88
2023-01-31T23:00:17.787Z,94463.09
2023-01-31T23:02:46.237Z,94459.31
2023-01-31T23:05:14.759Z,94465.28
2023-01-31T23:07:43.336Z,94457.69
2023-01-31T23:10:12.607Z,94470.41
2023-01-31T23:12:42.621Z,94472.63
2023-01-31T23:15:14.653Z,94464.47
2023-01-31T23:17:47.175Z,94462.91
2023-01-31T23:20:18.400Z,94458.53
2023-01-31T23:22:47.834Z,94463.69
2023-01-31T23:25:16.504Z,94464.94
2023-01-31T23:27:45.182Z,94472.69
2023-01-31T23:30:46.695Z,94486.34
2023-01-31T23:33:15.524Z,94476.66
2023-01-31T23:35:43.937Z,94479.81
2023-01-31T23:38:12.382Z,94475.69
2023-01-31T23:40:40.862Z,94470.84
2023-01-31T23:43:10.483Z,94469.50
2023-01-31T23:45:38.959Z,94474.66
2023-01-31T23:48:08.973Z,94470.84
2023-01-31T23:50:38.840Z,94471.22
2023-01-31T23:53:07.481Z,94467.28
2023-01-31T23:55:36.549Z,94466.69
2023-01-31T23:58:05.097Z,94464.69
